createdAt,value
2023-03-25T00:02:05.077Z,2.33
2023-03-25T00:04:35.257Z,2.30
2023-03-25T00:07:04.908Z,2.60
2023-03-25T00:09:34.259Z,2.37
2023-03-25T00:12:03.305Z,2.53
2023-03-25T00:14:33.074Z,2.83
2023-03-25T00:17:03.475Z,2.07
2023-03-25T00:19:33.708Z,2.30
2023-03-25T00:22:03.047Z,2.70
2023-03-25T00:24:32.133Z,2.70
2023-03-25T00:27:01.177Z,2.20
2023-03-25T00:29:30.324Z,3.07
2023-03-25T00:31:59.381Z,2.87
2023-03-25T00:34:29.779Z,2.90
2023-03-25T00:36:58.996Z,2.87
2023-03-25T00:39:28.245Z,2.17
2023-03-25T00:41:58.931Z,2.47
2023-03-25T00:44:27.916Z,2.30
2023-03-25T00:46:57.058Z,3.47
2023-03-25T00:49:28.527Z,3.23
2023-03-25T00:51:58.942Z,3.07
2023-03-25T00:54:28.013Z,2.73
2023-03-25T00:56:57.125Z,3.67
2023-03-25T00:59:26.297Z,2.87
2023-03-25T01:01:57.688Z,2.93
2023-03-25T01:04:26.839Z,3.17
2023-03-25T01:06:56.116Z,2.83
2023-03-25T01:09:26.555Z,2.77
2023-03-25T01:11:55.590Z,3.33
2023-03-25T01:14:27.322Z,3.13
2023-03-25T01:16:56.483Z,3.57
2023-03-25T01:19:25.825Z,2.33
2023-03-25T01:21:55.938Z,2.90
2023-03-25T01:24:26.535Z,3.43
2023-03-25T01:26:55.716Z,3.43
2023-03-25T01:29:24.735Z,3.10
2023-03-25T01:31:54.677Z,3.40
2023-03-25T01:34:23.860Z,2.70
2023-03-25T01:36:55.113Z,2.97
2023-03-25T01:39:26.271Z,3.27
2023-03-25T01:41:56.104Z,2.77
2023-03-25T01:45:02.757Z,2.97
2023-03-25T01:47:32.831Z,2.80
2023-03-25T01:50:01.888Z,2.30
2023-03-25T01:52:31.710Z,2.87
2023-03-25T01:55:02.307Z,2.20
2023-03-25T01:57:32.309Z,2.73
2023-03-25T02:00:01.473Z,2.43
2023-03-25T02:02:36.684Z,2.50
2023-03-25T02:05:10.933Z,2.33
2023-03-25T02:07:46.739Z,3.70
2023-03-25T02:10:18.520Z,2.40
2023-03-25T02:12:47.682Z,2.10
2023-03-25T02:15:20.522Z,2.57
2023-03-25T02:18:08.548Z,2.63
2023-03-25T02:21:18.187Z,2.77
2023-03-25T02:24:22.030Z,2.60
2023-03-25T02:27:14.897Z,2.73
2023-03-25T02:30:22.070Z,2.80
2023-03-25T02:33:20.303Z,2.83
2023-03-25T02:36:16.644Z,2.90
2023-03-25T02:38:49.629Z,3.00
2023-03-25T02:41:25.734Z,2.77
2023-03-25T02:44:03.461Z,2.90
2023-03-25T02:46:34.920Z,2.70
2023-03-25T02:49:09.526Z,2.23
2023-03-25T02:51:42.602Z,2.30
2023-03-25T02:54:17.065Z,2.70
2023-03-25T02:56:49.877Z,2.13
2023-03-25T02:59:22.081Z,2.47
2023-03-25T03:01:52.145Z,2.27
2023-03-25T03:04:22.269Z,2.87
2023-03-25T03:06:51.699Z,2.77
2023-03-25T03:09:37.130Z,2.67
2023-03-25T03:12:22.052Z,2.13
2023-03-25T03:15:01.562Z,2.20
2023-03-25T03:17:39.863Z,2.43
2023-03-25T03:20:19.541Z,2.33
2023-03-25T03:22:54.481Z,2.10
2023-03-25T03:25:32.550Z,2.33
2023-03-25T03:28:07.800Z,2.70
2023-03-25T03:30:46.340Z,2.40
2023-03-25T03:33:21.919Z,2.43
2023-03-25T03:35:57.252Z,2.50
2023-03-25T03:38:29.414Z,2.90
2023-03-25T03:41:05.711Z,2.33
2023-03-25T03:43:41.762Z,3.00
2023-03-25T03:46:17.092Z,2.13
2023-03-25T03:48:49.122Z,2.20
2023-03-25T03:51:21.400Z,2.33
2023-03-25T03:53:58.261Z,2.23
2023-03-25T03:56:37.240Z,2.20
2023-03-25T03:59:13.151Z,1.43
2023-03-25T04:01:46.096Z,2.70
2023-03-25T04:04:21.140Z,2.87
2023-03-25T04:06:57.286Z,2.23
2023-03-25T04:09:33.843Z,2.60
2023-03-25T04:12:09.875Z,2.40
2023-03-25T04:14:40.065Z,2.87
2023-03-25T04:17:09.272Z,2.73
2023-03-25T04:19:38.348Z,2.30
2023-03-25T04:22:07.941Z,2.30
2023-03-25T04:24:41.568Z,2.27
2023-03-25T04:27:13.666Z,2.27
2023-03-25T04:29:43.971Z,3.43
2023-03-25T04:32:13.426Z,2.90
2023-03-25T04:34:42.675Z,2.90
2023-03-25T04:37:11.735Z,1.33
2023-03-25T04:39:40.785Z,2.93
2023-03-25T04:42:13.720Z,1.90
2023-03-25T04:44:42.759Z,1.57
2023-03-25T04:47:15.482Z,1.80
2023-03-25T04:49:45.180Z,2.00
2023-03-25T04:52:14.553Z,2.20
2023-03-25T04:54:44.630Z,1.80
2023-03-25T04:57:15.237Z,1.70
2023-03-25T04:59:44.350Z,2.03
2023-03-25T05:02:14.404Z,1.60
2023-03-25T05:04:47.861Z,1.70
2023-03-25T05:07:18.913Z,1.27
2023-03-25T05:09:47.992Z,1.43
2023-03-25T05:12:18.354Z,1.17
2023-03-25T05:14:47.423Z,1.33
2023-03-25T05:17:16.514Z,1.47
2023-03-25T05:19:45.596Z,1.10
2023-03-25T05:22:14.615Z,1.40
2023-03-25T05:24:45.127Z,1.30
2023-03-25T05:27:14.160Z,1.47
2023-03-25T05:29:44.565Z,1.23
2023-03-25T05:32:17.717Z,1.43
2023-03-25T05:34:47.549Z,1.80
2023-03-25T05:37:16.752Z,1.47
2023-03-25T05:39:46.037Z,3.03
2023-03-25T05:42:15.203Z,1.63
2023-03-25T05:44:51.100Z,1.57
2023-03-25T05:47:21.974Z,1.57
2023-03-25T05:49:51.969Z,1.80
2023-03-25T05:52:24.349Z,1.40
2023-03-25T05:54:53.431Z,2.03
2023-03-25T05:57:22.500Z,1.87
2023-03-25T05:59:52.959Z,1.77
2023-03-25T06:02:22.117Z,1.97
2023-03-25T06:04:51.418Z,2.17
2023-03-25T06:07:20.800Z,1.30
2023-03-25T06:09:54.070Z,1.80
2023-03-25T06:12:27.342Z,1.50
2023-03-25T06:14:58.148Z,1.67
2023-03-25T06:17:27.563Z,1.63
2023-03-25T06:19:56.576Z,1.83
2023-03-25T06:22:27.304Z,1.57
2023-03-25T06:24:56.546Z,2.10
2023-03-25T06:27:27.016Z,2.77
2023-03-25T06:29:58.244Z,1.83
2023-03-25T06:32:27.340Z,1.93
2023-03-25T06:34:56.464Z,1.93
2023-03-25T06:37:26.140Z,2.87
2023-03-25T06:39:56.594Z,2.27
2023-03-25T06:42:27.812Z,2.63
2023-03-25T06:45:21.155Z,1.60
2023-03-25T06:48:09.569Z,2.33
2023-03-25T06:50:38.886Z,2.23
2023-03-25T06:53:07.964Z,2.50
2023-03-25T06:55:37.239Z,2.03
2023-03-25T06:58:06.548Z,3.37
2023-03-25T07:00:37.133Z,2.53
2023-03-25T07:03:06.310Z,2.57
2023-03-25T07:05:35.585Z,2.30
2023-03-25T07:08:04.859Z,2.73
2023-03-25T07:10:34.932Z,2.20
2023-03-25T07:13:04.040Z,2.57
2023-03-25T07:15:33.170Z,2.40
2023-03-25T07:18:03.615Z,2.80
2023-03-25T07:20:32.784Z,2.17
2023-03-25T07:23:01.816Z,1.80
2023-03-25T07:25:31.187Z,2.13
2023-03-25T07:28:00.324Z,1.67
2023-03-25T07:30:30.295Z,2.40
2023-03-25T07:32:59.420Z,1.77
2023-03-25T07:35:29.812Z,1.90
2023-03-25T07:37:58.996Z,2.10
2023-03-25T07:40:28.032Z,2.13
2023-03-25T07:42:57.062Z,2.40
2023-03-25T07:45:44.397Z,2.03
2023-03-25T07:48:16.134Z,2.00
2023-03-25T07:50:49.285Z,2.07
2023-03-25T07:53:18.453Z,2.00
2023-03-25T07:55:48.417Z,1.63
2023-03-25T07:58:17.826Z,1.43
2023-03-25T08:00:47.415Z,1.90
2023-03-25T08:03:17.267Z,1.93
2023-03-25T08:05:49.334Z,2.00
2023-03-25T08:08:18.686Z,1.90
2023-03-25T08:10:48.150Z,2.00
2023-03-25T08:13:17.383Z,1.90
2023-03-25T08:15:46.491Z,1.77
2023-03-25T08:18:15.699Z,1.60
2023-03-25T08:20:44.795Z,2.23
2023-03-25T08:23:19.619Z,2.00
2023-03-25T08:25:51.701Z,1.60
2023-03-25T08:28:23.194Z,2.00
2023-03-25T08:30:54.664Z,2.00
2023-03-25T08:33:26.937Z,1.90
2023-03-25T08:35:58.834Z,1.70
2023-03-25T08:38:34.407Z,2.03
2023-03-25T08:41:04.462Z,2.10
2023-03-25T08:43:33.504Z,1.50
2023-03-25T08:46:02.630Z,1.97
2023-03-25T08:48:31.668Z,2.20
2023-03-25T08:51:00.894Z,2.43
2023-03-25T08:53:32.473Z,1.73
2023-03-25T08:56:01.680Z,1.93
2023-03-25T08:58:30.748Z,1.87
2023-03-25T09:00:59.772Z,2.00
2023-03-25T09:03:28.974Z,1.73
2023-03-25T09:05:57.981Z,2.00
2023-03-25T09:08:26.999Z,1.70
2023-03-25T09:10:57.979Z,2.20
2023-03-25T09:13:27.617Z,1.80
2023-03-25T09:15:58.321Z,1.20
2023-03-25T09:18:27.497Z,3.53
2023-03-25T09:21:00.826Z,2.37
2023-03-25T09:23:29.990Z,1.63
2023-03-25T09:26:05.020Z,0.87
2023-03-25T09:28:34.094Z,0.93
2023-03-25T09:31:03.179Z,1.13
2023-03-25T09:33:32.274Z,1.23
2023-03-25T09:36:02.267Z,1.00
2023-03-25T09:38:31.659Z,1.20
2023-03-25T09:41:04.496Z,1.00
2023-03-25T09:43:41.166Z,1.37
2023-03-25T09:46:10.763Z,1.57
2023-03-25T09:48:42.931Z,1.03
2023-03-25T09:51:16.838Z,0.80
2023-03-25T09:53:51.678Z,0.70
2023-03-25T09:56:28.628Z,0.97
2023-03-25T09:59:02.638Z,1.10
2023-03-25T10:01:41.466Z,1.00
2023-03-25T10:04:40.472Z,0.97
2023-03-25T10:07:23.137Z,0.77
2023-03-25T10:09:59.334Z,0.70
2023-03-25T10:12:38.758Z,1.10
2023-03-25T10:15:22.631Z,1.03
2023-03-25T10:18:05.873Z,1.00
2023-03-25T10:20:48.493Z,0.77
2023-03-25T10:23:27.398Z,0.87
2023-03-25T10:26:01.947Z,1.30
2023-03-25T10:28:37.074Z,1.20
2023-03-25T10:31:11.599Z,0.63
2023-03-25T10:33:44.790Z,0.90
2023-03-25T10:36:19.175Z,0.80
2023-03-25T10:38:54.247Z,0.87
2023-03-25T10:41:28.072Z,0.70
2023-03-25T10:43:58.445Z,0.82
2023-03-25T10:46:32.284Z,1.00
2023-03-25T10:49:01.781Z,0.63
2023-03-25T10:51:33.248Z,1.00
2023-03-25T10:54:02.711Z,0.90
2023-03-25T10:56:35.415Z,1.25
2023-03-25T10:59:13.978Z,1.00
2023-03-25T11:01:44.561Z,0.95
2023-03-25T11:04:18.002Z,1.00
2023-03-25T11:06:52.426Z,1.08
2023-03-25T11:09:28.179Z,1.23
2023-03-25T11:12:00.598Z,0.80
2023-03-25T11:14:32.181Z,1.27
2023-03-25T11:17:03.971Z,0.90
2023-03-25T11:19:38.827Z,0.90
2023-03-25T11:22:13.825Z,0.80
2023-03-25T11:24:45.477Z,0.90
2023-03-25T11:27:20.425Z,0.80
2023-03-25T11:29:55.852Z,1.43
2023-03-25T11:32:32.203Z,1.00
2023-03-25T11:35:03.655Z,0.73
2023-03-25T11:37:37.762Z,0.67
2023-03-25T11:40:14.800Z,0.80
2023-03-25T11:42:49.648Z,0.50
2023-03-25T11:45:25.415Z,0.90
2023-03-25T11:47:58.770Z,0.90
2023-03-25T11:50:30.016Z,0.40
2023-03-25T11:53:03.534Z,0.70
2023-03-25T11:55:38.414Z,0.50
2023-03-25T11:58:08.756Z,0.63
2023-03-25T12:00:42.140Z,0.60
2023-03-25T12:03:22.768Z,0.50
2023-03-25T12:06:00.720Z,0.90
2023-03-25T12:08:44.014Z,0.57
2023-03-25T12:11:19.759Z,0.70
2023-03-25T12:14:09.193Z,0.57
2023-03-25T12:16:46.111Z,0.50
2023-03-25T12:19:24.779Z,0.70
2023-03-25T12:22:11.251Z,0.90
2023-03-25T12:25:01.050Z,0.70
2023-03-25T12:27:45.000Z,1.00
2023-03-25T12:30:34.018Z,0.80
2023-03-25T12:33:13.641Z,0.70
2023-03-25T12:35:48.812Z,0.40
2023-03-25T12:38:30.669Z,0.80
2023-03-25T12:41:18.541Z,0.53
2023-03-25T12:43:59.689Z,0.73
2023-03-25T12:46:49.830Z,0.93
2023-03-25T12:49:44.500Z,1.47
2023-03-25T12:52:24.306Z,0.50
2023-03-25T12:55:07.777Z,0.60
2023-03-25T12:57:48.624Z,0.70
2023-03-25T13:00:30.310Z,0.70
2023-03-25T13:03:27.151Z,1.00
2023-03-25T13:06:01.253Z,0.63
2023-03-25T13:08:34.736Z,0.80
2023-03-25T13:11:09.780Z,0.63
2023-03-25T13:13:42.707Z,0.77
2023-03-25T13:16:16.103Z,0.90
2023-03-25T13:18:48.915Z,0.60
2023-03-25T13:21:23.890Z,0.93
2023-03-25T13:23:59.301Z,0.70
2023-03-25T13:26:31.868Z,0.80
2023-03-25T13:29:05.411Z,0.93
2023-03-25T13:31:37.842Z,0.60
2023-03-25T13:34:20.254Z,0.90
2023-03-25T13:37:00.717Z,0.70
2023-03-25T13:39:40.352Z,0.87
2023-03-25T13:42:15.605Z,1.83
2023-03-25T13:44:51.330Z,1.00
2023-03-25T13:47:25.886Z,0.70
2023-03-25T13:49:58.440Z,0.53
2023-03-25T13:52:35.254Z,0.40
2023-03-25T13:55:11.505Z,0.40
2023-03-25T13:58:05.754Z,0.80
2023-03-25T14:00:54.766Z,0.60
2023-03-25T14:03:53.514Z,0.60
2023-03-25T14:07:12.219Z,0.93
2023-03-25T14:10:15.532Z,0.67
2023-03-25T14:12:48.730Z,0.60
2023-03-25T14:15:23.620Z,0.63
2023-03-25T14:17:54.272Z,0.70
2023-03-25T14:20:27.931Z,0.80
2023-03-25T14:22:59.590Z,0.80
2023-03-25T14:25:38.944Z,0.70
2023-03-25T14:28:13.496Z,0.60
2023-03-25T14:30:43.029Z,0.50
2023-03-25T14:33:13.094Z,0.67
2023-03-25T14:36:00.141Z,0.50
2023-03-25T14:38:51.367Z,0.33
2023-03-25T14:41:55.784Z,0.80
2023-03-25T14:44:29.229Z,0.40
2023-03-25T14:47:03.265Z,0.30
2023-03-25T14:49:54.316Z,0.43
2023-03-25T14:52:31.157Z,0.23
2023-03-25T14:55:02.805Z,0.23
2023-03-25T14:57:40.709Z,0.60
2023-03-25T15:00:21.503Z,0.53
2023-03-25T15:02:59.684Z,0.40
2023-03-25T15:05:30.591Z,0.40
2023-03-25T15:08:11.225Z,0.60
2023-03-25T15:10:42.987Z,0.60
2023-03-25T15:13:17.643Z,0.60
2023-03-25T15:16:01.233Z,0.70
2023-03-25T15:19:02.183Z,0.90
2023-03-25T15:21:50.522Z,0.60
2023-03-25T15:24:26.708Z,0.80
2023-03-25T15:26:57.708Z,1.20
2023-03-25T15:29:46.996Z,0.80
2023-03-25T15:32:33.868Z,1.00
2023-03-25T15:35:33.734Z,1.20
2023-03-25T15:38:19.769Z,1.00
2023-03-25T15:41:02.505Z,0.80
2023-03-25T15:44:06.395Z,0.97
2023-03-25T15:47:02.972Z,1.00
2023-03-25T15:50:07.642Z,0.80
2023-03-25T15:53:08.216Z,0.70
2023-03-25T15:55:40.996Z,1.00
2023-03-25T15:58:20.141Z,0.90
2023-03-25T16:00:53.612Z,0.80
2023-03-25T16:03:27.054Z,1.30
2023-03-25T16:06:01.628Z,1.53
2023-03-25T16:08:35.789Z,0.80
2023-03-25T16:11:26.737Z,0.90
2023-03-25T16:14:09.375Z,1.03
2023-03-25T16:16:41.033Z,0.70
2023-03-25T16:19:17.447Z,0.87
2023-03-25T16:21:52.678Z,2.43
2023-03-25T16:24:29.762Z,5.83
2023-03-25T16:26:58.923Z,1.30
2023-03-25T16:29:28.237Z,1.53
2023-03-25T16:31:59.805Z,2.50
2023-03-25T16:34:34.308Z,3.10
2023-03-25T16:37:05.952Z,2.10
2023-03-25T16:39:37.707Z,1.10
2023-03-25T16:42:14.385Z,1.20
2023-03-25T16:44:43.404Z,1.30
2023-03-25T16:47:15.854Z,1.17
2023-03-25T16:49:49.006Z,0.40
2023-03-25T16:52:23.954Z,0.40
2023-03-25T16:55:12.742Z,0.70
2023-03-25T16:57:41.932Z,0.30
2023-03-25T17:00:19.353Z,0.70
2023-03-25T17:02:49.838Z,0.47
2023-03-25T17:05:22.023Z,0.50
2023-03-25T17:07:59.323Z,0.60
2023-03-25T17:10:30.957Z,0.40
2023-03-25T17:13:05.367Z,0.67
2023-03-25T17:15:36.008Z,0.57
2023-03-25T17:18:13.382Z,0.40
2023-03-25T17:20:44.940Z,0.50
2023-03-25T17:23:28.356Z,0.50
2023-03-25T17:26:00.226Z,0.50
2023-03-25T17:28:35.064Z,0.63
2023-03-25T17:31:20.105Z,0.40
2023-03-25T17:33:50.664Z,0.60
2023-03-25T17:36:21.299Z,3.57
2023-03-25T17:38:53.960Z,5.63
2023-03-25T17:41:23.298Z,5.60
2023-03-25T17:43:56.040Z,2.97
2023-03-25T17:46:26.744Z,1.50
2023-03-25T17:48:58.049Z,1.30
2023-03-25T17:51:28.694Z,1.30
2023-03-25T17:53:59.245Z,0.83
2023-03-25T17:56:29.645Z,0.67
2023-03-25T17:59:01.712Z,0.97
2023-03-25T18:01:32.497Z,0.90
2023-03-25T18:04:01.590Z,0.80
2023-03-25T18:06:30.723Z,0.83
2023-03-25T18:09:01.335Z,0.70
2023-03-25T18:11:30.404Z,0.73
2023-03-25T18:13:59.505Z,1.27
2023-03-25T18:16:28.621Z,1.10
2023-03-25T18:18:57.691Z,1.00
2023-03-25T18:21:26.868Z,1.10
2023-03-25T18:23:56.890Z,1.37
2023-03-25T18:26:28.370Z,1.10
2023-03-25T18:28:57.418Z,0.97
2023-03-25T18:31:26.522Z,1.27
2023-03-25T18:33:56.486Z,1.43
2023-03-25T18:36:25.712Z,1.00
2023-03-25T18:38:54.952Z,1.00
2023-03-25T18:41:24.360Z,0.80
2023-03-25T18:43:54.759Z,1.13
2023-03-25T18:46:23.817Z,0.67
2023-03-25T18:48:52.975Z,0.90
2023-03-25T18:51:22.401Z,1.27
2023-03-25T18:53:51.599Z,0.60
2023-03-25T18:56:20.844Z,1.20
2023-03-25T18:58:49.932Z,1.77
2023-03-25T19:01:21.649Z,1.23
2023-03-25T19:03:51.480Z,3.47
2023-03-25T19:06:21.019Z,2.17
2023-03-25T19:08:50.138Z,1.40
2023-03-25T19:11:22.218Z,1.70
2023-03-25T19:13:52.448Z,1.43
2023-03-25T19:16:22.996Z,2.13
2023-03-25T19:18:52.008Z,1.00
2023-03-25T19:21:21.410Z,1.00
2023-03-25T19:23:51.998Z,1.17
2023-03-25T19:26:21.045Z,1.20
2023-03-25T19:28:50.129Z,1.50
2023-03-25T19:31:19.268Z,1.43
2023-03-25T19:33:49.711Z,1.10
2023-03-25T19:36:19.766Z,1.30
2023-03-25T19:38:48.809Z,1.47
2023-03-25T19:41:17.901Z,1.10
2023-03-25T19:43:47.042Z,2.03
2023-03-25T19:46:16.791Z,1.23
2023-03-25T19:48:46.486Z,1.33
2023-03-25T19:51:16.989Z,1.37
2023-03-25T19:53:45.991Z,1.60
2023-03-25T19:56:15.030Z,1.23
2023-03-25T19:58:44.029Z,2.10
2023-03-25T20:01:13.107Z,1.50
2023-03-25T20:03:43.081Z,1.23
2023-03-25T20:06:12.172Z,1.77
2023-03-25T20:08:42.574Z,1.80
2023-03-25T20:11:12.407Z,1.60
2023-03-25T20:13:41.436Z,2.37
2023-03-25T20:16:10.902Z,1.57
2023-03-25T20:18:41.261Z,1.60
2023-03-25T20:21:11.738Z,2.63
2023-03-25T20:23:42.205Z,1.87
2023-03-25T20:26:11.308Z,2.37
2023-03-25T20:28:40.586Z,2.00
2023-03-25T20:31:21.217Z,2.73
2023-03-25T20:33:51.343Z,2.03
2023-03-25T20:36:21.526Z,2.10
2023-03-25T20:38:57.766Z,1.40
2023-03-25T20:41:27.743Z,2.27
2023-03-25T20:43:56.913Z,2.53
2023-03-25T20:46:28.531Z,3.00
2023-03-25T20:48:58.215Z,2.20
2023-03-25T20:51:27.657Z,2.03
2023-03-25T20:53:58.105Z,1.80
2023-03-25T20:56:27.386Z,1.27
2023-03-25T20:58:56.448Z,2.00
2023-03-25T21:01:25.851Z,2.40
2023-03-25T21:03:55.092Z,2.33
2023-03-25T21:06:27.973Z,2.47
2023-03-25T21:09:05.104Z,2.23
2023-03-25T21:11:36.232Z,1.67
2023-03-25T21:14:05.590Z,2.80
2023-03-25T21:16:34.744Z,2.17
2023-03-25T21:19:03.775Z,2.30
2023-03-25T21:21:33.466Z,1.87
2023-03-25T21:24:04.655Z,2.67
2023-03-25T21:26:34.626Z,2.47
2023-03-25T21:29:03.662Z,2.50
2023-03-25T21:31:32.962Z,2.80
2023-03-25T21:34:02.671Z,2.23
2023-03-25T21:36:32.276Z,2.13
2023-03-25T21:39:06.772Z,2.40
2023-03-25T21:41:36.468Z,2.10
2023-03-25T21:44:06.110Z,2.40
2023-03-25T21:46:36.881Z,2.00
2023-03-25T21:49:06.237Z,1.97
2023-03-25T21:51:35.988Z,2.07
2023-03-25T21:54:06.525Z,2.80
2023-03-25T21:56:40.108Z,2.03
2023-03-25T21:59:09.475Z,1.70
2023-03-25T22:01:41.720Z,2.00
2023-03-25T22:04:11.059Z,2.30
2023-03-25T22:06:40.138Z,2.20
2023-03-25T22:09:10.605Z,2.03
2023-03-25T22:11:39.879Z,2.23
2023-03-25T22:14:09.629Z,2.13
2023-03-25T22:16:39.221Z,2.10
2023-03-25T22:19:08.383Z,2.20
2023-03-25T22:21:38.029Z,2.23
2023-03-25T22:24:10.065Z,2.00
2023-03-25T22:26:40.766Z,2.00
2023-03-25T22:29:11.408Z,2.03
2023-03-25T22:31:42.664Z,2.37
2023-03-25T22:34:15.218Z,2.67
2023-03-25T22:36:49.910Z,3.13
2023-03-25T22:39:23.029Z,2.70
2023-03-25T22:41:52.143Z,2.43
2023-03-25T22:44:21.528Z,2.00
2023-03-25T22:46:52.379Z,2.63
2023-03-25T22:49:21.695Z,2.40
2023-03-25T22:51:50.984Z,3.00
2023-03-25T22:54:21.397Z,2.53
2023-03-25T22:56:50.674Z,2.47
2023-03-25T22:59:20.641Z,2.77
2023-03-25T23:01:49.760Z,2.53
2023-03-25T23:04:18.794Z,2.43
2023-03-25T23:07:00.545Z,2.10
2023-03-25T23:09:44.112Z,2.00
2023-03-25T23:12:14.734Z,2.30
2023-03-25T23:14:49.529Z,2.37
2023-03-25T23:17:18.765Z,1.97
2023-03-25T23:19:47.956Z,2.57
2023-03-25T23:22:17.759Z,2.30
2023-03-25T23:24:48.106Z,2.50
2023-03-25T23:27:17.145Z,2.60
2023-03-25T23:29:46.347Z,1.53
2023-03-25T23:32:16.412Z,1.67
2023-03-25T23:34:45.429Z,2.30
2023-03-25T23:37:15.161Z,2.33
2023-03-25T23:39:46.202Z,2.00
2023-03-25T23:42:16.622Z,2.40
2023-03-25T23:44:45.684Z,3.60
2023-03-25T23:47:14.684Z,2.23
2023-03-25T23:49:44.184Z,2.13
2023-03-25T23:52:13.567Z,2.37
2023-03-25T23:54:42.949Z,2.10
2023-03-25T23:57:14.205Z,2.03
2023-03-25T23:59:45.647Z,2.13
